Terminal Aerodrome Forecast
Issued by NWS Boston, MA

Home | Current Version | Previous Version | Text Only | Print | Product List | Glossary On
Versions: 1 2 3 4 5 6 7 8 9 10 11 12 13 14 15 16 17 18 19 20 21 22 23 24
000
FTUS41 KBOX 302328
TAFBOS
TAF
KBOS 302328Z 3100/0106 22009KT P6SM FEW015 BKN200
     FM310300 22009KT P6SM BKN200
     FM310700 23008KT P6SM OVC070
     FM311300 25006KT P6SM SCT250
     FM010200 29006KT P6SM FEW250=

USA.gov is the U.S. government's official web portal to all federal, state and local government web resources and services.